sensor_id;sensor_type;location;lat;lon;timestamp;pressure;altitude;pressure_sealevel;temperature;humidity
68634;BME280;55625;47.072;22.192;2022-12-16T00:01:41;99005.75;;;5.26;100.00
68634;BME280;55625;47.072;22.192;2022-12-16T00:04:07;99005.84;;;5.23;100.00
68634;BME280;55625;47.072;22.192;2022-12-16T00:06:33;99009.81;;;5.25;100.00
68634;BME280;55625;47.072;22.192;2022-12-16T00:09:00;99010.81;;;5.15;100.00
68634;BME280;55625;47.072;22.192;2022-12-16T00:11:27;99012.97;;;5.27;100.00
68634;BME280;55625;47.072;22.192;2022-12-16T00:13:53;98998.38;;;5.33;100.00
68634;BME280;55625;47.072;22.192;2022-12-16T00:16:20;98997.94;;;5.34;99.12
68634;BME280;55625;47.072;22.192;2022-12-16T00:18:47;98986.63;;;5.38;98.61
68634;BME280;55625;47.072;22.192;2022-12-16T00:21:13;98999.63;;;5.48;97.65
68634;BME280;55625;47.072;22.192;2022-12-16T00:23:40;98995.59;;;5.49;98.00
68634;BME280;55625;47.072;22.192;2022-12-16T00:26:07;98998.75;;;5.51;97.52
68634;BME280;55625;47.072;22.192;2022-12-16T00:28:33;99001.97;;;5.53;97.36
68634;BME280;55625;47.072;22.192;2022-12-16T00:30:59;99006.88;;;5.65;96.60
68634;BME280;55625;47.072;22.192;2022-12-16T00:33:26;99004.34;;;5.71;96.63
68634;BME280;55625;47.072;22.192;2022-12-16T00:35:53;99001.59;;;5.67;96.84
68634;BME280;55625;47.072;22.192;2022-12-16T00:38:20;98992.81;;;5.65;96.79
68634;BME280;55625;47.072;22.192;2022-12-16T00:40:46;99001.25;;;5.65;97.32
68634;BME280;55625;47.072;22.192;2022-12-16T00:43:12;98980.84;;;5.61;97.86
68634;BME280;55625;47.072;22.192;2022-12-16T00:45:38;98982.25;;;5.69;97.43
68634;BME280;55625;47.072;22.192;2022-12-16T00:48:06;98982.25;;;5.69;96.97
68634;BME280;55625;47.072;22.192;2022-12-16T00:50:32;98966.59;;;5.68;97.60
68634;BME280;55625;47.072;22.192;2022-12-16T00:52:58;98969.78;;;5.70;97.27
68634;BME280;55625;47.072;22.192;2022-12-16T00:55:24;98963.06;;;5.80;97.51
68634;BME280;55625;47.072;22.192;2022-12-16T00:57:50;98967.84;;;5.83;97.45
68634;BME280;55625;47.072;22.192;2022-12-16T01:00:17;98963.44;;;5.82;97.84
68634;BME280;55625;47.072;22.192;2022-12-16T01:02:46;98973.09;;;5.81;97.84
68634;BME280;55625;47.072;22.192;2022-12-16T01:05:15;98971.97;;;5.79;98.10
68634;BME280;55625;47.072;22.192;2022-12-16T01:07:41;98963.50;;;5.79;99.06
68634;BME280;55625;47.072;22.192;2022-12-16T01:10:08;98962.28;;;5.80;98.68
68634;BME280;55625;47.072;22.192;2022-12-16T01:12:35;98961.22;;;5.74;98.91
68634;BME280;55625;47.072;22.192;2022-12-16T01:15:03;98969.59;;;5.77;98.36
68634;BME280;55625;47.072;22.192;2022-12-16T01:17:30;98971.88;;;5.66;99.71
68634;BME280;55625;47.072;22.192;2022-12-16T01:19:55;98982.09;;;5.60;100.00
68634;BME280;55625;47.072;22.192;2022-12-16T01:22:22;98973.38;;;5.54;100.00
68634;BME280;55625;47.072;22.192;2022-12-16T01:24:48;98969.03;;;5.50;100.00
68634;BME280;55625;47.072;22.192;2022-12-16T01:27:14;98961.22;;;5.41;100.00
68634;BME280;55625;47.072;22.192;2022-12-16T01:29:41;98958.13;;;5.36;100.00
68634;BME280;55625;47.072;22.192;2022-12-16T01:32:12;98952.16;;;5.34;100.00
68634;BME280;55625;47.072;22.192;2022-12-16T01:34:38;98947.84;;;5.29;100.00
68634;BME280;55625;47.072;22.192;2022-12-16T01:37:04;98935.63;;;5.36;100.00
68634;BME280;55625;47.072;22.192;2022-12-16T01:39:30;98930.34;;;5.38;100.00
68634;BME280;55625;47.072;22.192;2022-12-16T01:41:56;98929.47;;;5.41;100.00
68634;BME280;55625;47.072;22.192;2022-12-16T01:44:24;98919.44;;;5.40;100.00
68634;BME280;55625;47.072;22.192;2022-12-16T01:47:02;98910.66;;;5.38;100.00
68634;BME280;55625;47.072;22.192;2022-12-16T01:49:54;98926.75;;;5.37;100.00
68634;BME280;55625;47.072;22.192;2022-12-16T01:52:31;98931.75;;;5.46;100.00
68634;BME280;55625;47.072;22.192;2022-12-16T01:55:20;98914.53;;;5.44;100.00
68634;BME280;55625;47.072;22.192;2022-12-16T01:57:59;98918.91;;;5.45;100.00
68634;BME280;55625;47.072;22.192;2022-12-16T02:00:27;98914.53;;;5.44;100.00
68634;BME280;55625;47.072;22.192;2022-12-16T02:02:53;98922.97;;;5.44;100.00
68634;BME280;55625;47.072;22.192;2022-12-16T02:05:20;98950.91;;;5.51;100.00
68634;BME280;55625;47.072;22.192;2022-12-16T02:08:09;98951.22;;;5.56;100.00
68634;BME280;55625;47.072;22.192;2022-12-16T02:16:25;98945.50;;;5.60;100.00
68634;BME280;55625;47.072;22.192;2022-12-16T02:38:58;98880.06;;;5.40;100.00
68634;BME280;55625;47.072;22.192;2022-12-16T02:44:20;98858.34;;;5.40;100.00
68634;BME280;55625;47.072;22.192;2022-12-16T02:46:55;98864.75;;;5.41;100.00
68634;BME280;55625;47.072;22.192;2022-12-16T02:51:46;98863.19;;;5.56;100.00
68634;BME280;55625;47.072;22.192;2022-12-16T02:54:13;98855.88;;;5.58;100.00
68634;BME280;55625;47.072;22.192;2022-12-16T03:00:09;98840.13;;;5.61;100.00
68634;BME280;55625;47.072;22.192;2022-12-16T03:03:12;98841.72;;;5.62;100.00
68634;BME280;55625;47.072;22.192;2022-12-16T03:05:46;98846.53;;;5.61;100.00
68634;BME280;55625;47.072;22.192;2022-12-16T03:08:30;98841.72;;;5.62;100.00
68634;BME280;55625;47.072;22.192;2022-12-16T03:11:05;98850.41;;;5.68;100.00
68634;BME280;55625;47.072;22.192;2022-12-16T03:13:41;98847.16;;;5.69;100.00
68634;BME280;55625;47.072;22.192;2022-12-16T03:16:10;98842.75;;;5.68;100.00
68634;BME280;55625;47.072;22.192;2022-12-16T03:18:42;98848.72;;;5.70;100.00
68634;BME280;55625;47.072;22.192;2022-12-16T03:21:10;98838.84;;;5.78;100.00
68634;BME280;55625;47.072;22.192;2022-12-16T03:23:59;98846.63;;;5.90;100.00
68634;BME280;55625;47.072;22.192;2022-12-16T03:32:05;98845.63;;;5.97;100.00
68634;BME280;55625;47.072;22.192;2022-12-16T03:34:53;98846.53;;;5.94;100.00
68634;BME280;55625;47.072;22.192;2022-12-16T03:37:23;98824.09;;;5.90;100.00
68634;BME280;55625;47.072;22.192;2022-12-16T03:39:54;98810.09;;;5.87;100.00
68634;BME280;55625;47.072;22.192;2022-12-16T03:42:22;98815.81;;;5.83;100.00
68634;BME280;55625;47.072;22.192;2022-12-16T03:44:49;98827.59;;;5.78;100.00
68634;BME280;55625;47.072;22.192;2022-12-16T03:47:15;98817.06;;;5.82;100.00
68634;BME280;55625;47.072;22.192;2022-12-16T03:49:41;98816.69;;;5.80;100.00
68634;BME280;55625;47.072;22.192;2022-12-16T03:52:07;98800.50;;;5.84;100.00
68634;BME280;55625;47.072;22.192;2022-12-16T03:54:33;98815.81;;;5.83;100.00
68634;BME280;55625;47.072;22.192;2022-12-16T03:56:59;98816.50;;;5.87;100.00
68634;BME280;55625;47.072;22.192;2022-12-16T03:59:25;98814.59;;;5.84;100.00
68634;BME280;55625;47.072;22.192;2022-12-16T04:01:51;98805.41;;;5.80;100.00
68634;BME280;55625;47.072;22.192;2022-12-16T04:04:18;98807.44;;;5.80;100.00
68634;BME280;55625;47.072;22.192;2022-12-16T04:06:43;98799.44;;;5.78;100.00
68634;BME280;55625;47.072;22.192;2022-12-16T04:09:09;98790.03;;;5.85;100.00
68634;BME280;55625;47.072;22.192;2022-12-16T04:11:35;98794.88;;;5.84;100.00
68634;BME280;55625;47.072;22.192;2022-12-16T04:14:19;98794.44;;;5.86;100.00
68634;BME280;55625;47.072;22.192;2022-12-16T04:17:04;98784.75;;;5.87;100.00
68634;BME280;55625;47.072;22.192;2022-12-16T04:19:49;98773.31;;;5.94;100.00
68634;BME280;55625;47.072;22.192;2022-12-16T04:22:41;98761.16;;;5.97;100.00
68634;BME280;55625;47.072;22.192;2022-12-16T04:25:34;98752.94;;;6.03;100.00
68634;BME280;55625;47.072;22.192;2022-12-16T04:28:02;98752.53;;;6.17;100.00
68634;BME280;55625;47.072;22.192;2022-12-16T04:30:30;98755.69;;;6.19;100.00
68634;BME280;55625;47.072;22.192;2022-12-16T04:33:03;98743.19;;;6.20;100.00
68634;BME280;55625;47.072;22.192;2022-12-16T04:35:48;98737.88;;;6.22;100.00
68634;BME280;55625;47.072;22.192;2022-12-16T04:38:32;98720.19;;;6.21;100.00
68634;BME280;55625;47.072;22.192;2022-12-16T04:41:17;98720.66;;;6.33;100.00
68634;BME280;55625;47.072;22.192;2022-12-16T04:44:02;98724.81;;;6.28;100.00
68634;BME280;55625;47.072;22.192;2022-12-16T04:46:46;98730.00;;;6.30;100.00
68634;BME280;55625;47.072;22.192;2022-12-16T04:49:31;98725.50;;;6.32;100.00
68634;BME280;55625;47.072;22.192;2022-12-16T04:52:15;98724.81;;;6.28;100.00
68634;BME280;55625;47.072;22.192;2022-12-16T04:55:00;98721.22;;;6.28;100.00
68634;BME280;55625;47.072;22.192;2022-12-16T04:57:52;98734.41;;;6.31;100.00
68634;BME280;55625;47.072;22.192;2022-12-16T05:00:37;98725.59;;;6.29;100.00
68634;BME280;55625;47.072;22.192;2022-12-16T05:03:36;98728.75;;;6.31;100.00
68634;BME280;55625;47.072;22.192;2022-12-16T05:06:20;98727.75;;;6.37;100.00
68634;BME280;55625;47.072;22.192;2022-12-16T05:09:06;98718.28;;;6.31;100.00
68634;BME280;55625;47.072;22.192;2022-12-16T05:11:50;98699.13;;;6.26;100.00
68634;BME280;55625;47.072;22.192;2022-12-16T05:14:35;98685.59;;;6.21;100.00
68634;BME280;55625;47.072;22.192;2022-12-16T05:17:19;98681.09;;;6.23;100.00
68634;BME280;55625;47.072;22.192;2022-12-16T05:20:05;98681.88;;;6.24;100.00
68634;BME280;55625;47.072;22.192;2022-12-16T05:22:49;98683.22;;;6.19;100.00
68634;BME280;55625;47.072;22.192;2022-12-16T05:25:34;98667.69;;;6.15;100.00
68634;BME280;55625;47.072;22.192;2022-12-16T05:28:18;98661.03;;;6.21;100.00
68634;BME280;55625;47.072;22.192;2022-12-16T05:31:03;98657.19;;;6.28;100.00
68634;BME280;55625;47.072;22.192;2022-12-16T05:33:48;98667.91;;;6.33;100.00
68634;BME280;55625;47.072;22.192;2022-12-16T05:36:32;98672.75;;;6.33;100.00
68634;BME280;55625;47.072;22.192;2022-12-16T05:39:17;98663.84;;;6.34;100.00
68634;BME280;55625;47.072;22.192;2022-12-16T05:42:01;98661.03;;;6.34;100.00
68634;BME280;55625;47.072;22.192;2022-12-16T05:44:45;98656.63;;;6.33;100.00
68634;BME280;55625;47.072;22.192;2022-12-16T05:47:30;98650.00;;;6.27;100.00
68634;BME280;55625;47.072;22.192;2022-12-16T05:50:15;98646.25;;;6.30;100.00
68634;BME280;55625;47.072;22.192;2022-12-16T05:52:59;98648.19;;;6.33;100.00
68634;BME280;55625;47.072;22.192;2022-12-16T05:55:44;98659.00;;;6.35;100.00
68634;BME280;55625;47.072;22.192;2022-12-16T05:58:28;98662.25;;;6.33;100.00
68634;BME280;55625;47.072;22.192;2022-12-16T06:01:13;98653.94;;;6.30;100.00
68634;BME280;55625;47.072;22.192;2022-12-16T06:03:58;98653.47;;;6.31;100.00
68634;BME280;55625;47.072;22.192;2022-12-16T06:06:42;98654.28;;;6.32;100.00
68634;BME280;55625;47.072;22.192;2022-12-16T06:09:26;98666.66;;;6.34;100.00
68634;BME280;55625;47.072;22.192;2022-12-16T06:12:11;98666.88;;;6.40;100.00
68634;BME280;55625;47.072;22.192;2022-12-16T06:14:56;98664.06;;;6.40;100.00
68634;BME280;55625;47.072;22.192;2022-12-16T06:17:48;98668.81;;;6.43;100.00
68634;BME280;55625;47.072;22.192;2022-12-16T06:20:33;98678.72;;;6.47;100.00
68634;BME280;55625;47.072;22.192;2022-12-16T06:23:17;98685.16;;;6.48;100.00
68634;BME280;55625;47.072;22.192;2022-12-16T06:26:16;98684.38;;;6.47;100.00
68634;BME280;55625;47.072;22.192;2022-12-16T06:29:00;98675.59;;;6.45;100.00
68634;BME280;55625;47.072;22.192;2022-12-16T06:31:45;98683.13;;;6.48;100.00
68634;BME280;55625;47.072;22.192;2022-12-16T06:34:29;98676.91;;;6.53;100.00
68634;BME280;55625;47.072;22.192;2022-12-16T06:37:14;98681.31;;;6.54;100.00
68634;BME280;55625;47.072;22.192;2022-12-16T06:39:58;98684.25;;;6.51;100.00
68634;BME280;55625;47.072;22.192;2022-12-16T06:42:43;98702.84;;;6.48;100.00
68634;BME280;55625;47.072;22.192;2022-12-16T06:45:28;98708.16;;;6.46;100.00
68634;BME280;55625;47.072;22.192;2022-12-16T06:48:12;98713.69;;;6.50;100.00
68634;BME280;55625;47.072;22.192;2022-12-16T06:50:57;98719.88;;;6.58;100.00
68634;BME280;55625;47.072;22.192;2022-12-16T06:53:41;98707.03;;;6.57;100.00
68634;BME280;55625;47.072;22.192;2022-12-16T06:56:26;98708.94;;;6.60;100.00
68634;BME280;55625;47.072;22.192;2022-12-16T06:59:10;98704.63;;;6.68;100.00
68634;BME280;55625;47.072;22.192;2022-12-16T07:01:54;98695.97;;;6.75;100.00
68634;BME280;55625;47.072;22.192;2022-12-16T07:04:39;98698.75;;;6.88;100.00
68634;BME280;55625;47.072;22.192;2022-12-16T07:07:23;98717.69;;;7.00;100.00
68634;BME280;55625;47.072;22.192;2022-12-16T07:10:08;98726.03;;;7.03;100.00
68634;BME280;55625;47.072;22.192;2022-12-16T07:12:57;98713.53;;;7.04;100.00
68634;BME280;55625;47.072;22.192;2022-12-16T07:15:42;98732.25;;;6.98;100.00
68634;BME280;55625;47.072;22.192;2022-12-16T07:18:27;98745.09;;;6.99;100.00
68634;BME280;55625;47.072;22.192;2022-12-16T07:21:11;98733.38;;;6.88;100.00
68634;BME280;55625;47.072;22.192;2022-12-16T07:23:56;98734.28;;;6.85;100.00
68634;BME280;55625;47.072;22.192;2022-12-16T07:26:40;98722.22;;;6.84;100.00
68634;BME280;55625;47.072;22.192;2022-12-16T07:29:25;98733.25;;;6.92;100.00
68634;BME280;55625;47.072;22.192;2022-12-16T07:32:10;98748.50;;;6.81;100.00
68634;BME280;55625;47.072;22.192;2022-12-16T07:34:54;98780.56;;;6.75;100.00
68634;BME280;55625;47.072;22.192;2022-12-16T07:37:39;98778.97;;;6.74;100.00
68634;BME280;55625;47.072;22.192;2022-12-16T07:40:23;98792.72;;;6.72;100.00
68634;BME280;55625;47.072;22.192;2022-12-16T07:43:08;98799.13;;;6.72;100.00
68634;BME280;55625;47.072;22.192;2022-12-16T07:45:52;98799.94;;;6.73;100.00
68634;BME280;55625;47.072;22.192;2022-12-16T07:48:38;98800.81;;;6.70;100.00
68634;BME280;55625;47.072;22.192;2022-12-16T07:51:22;98814.59;;;6.68;100.00
68634;BME280;55625;47.072;22.192;2022-12-16T07:54:07;98825.53;;;6.66;100.00
68634;BME280;55625;47.072;22.192;2022-12-16T07:56:51;98814.69;;;6.64;100.00
68634;BME280;55625;47.072;22.192;2022-12-16T07:59:36;98818.75;;;6.63;100.00
68634;BME280;55625;47.072;22.192;2022-12-16T08:02:20;98839.63;;;6.66;100.00
68634;BME280;55625;47.072;22.192;2022-12-16T08:05:05;98829.13;;;6.66;100.00
68634;BME280;55625;47.072;22.192;2022-12-16T08:07:50;98846.84;;;6.67;100.00
68634;BME280;55625;47.072;22.192;2022-12-16T08:10:34;98827.44;;;6.69;100.00
68634;BME280;55625;47.072;22.192;2022-12-16T08:13:19;98849.09;;;6.72;100.00
68634;BME280;55625;47.072;22.192;2022-12-16T08:16:04;98845.94;;;6.70;100.00
68634;BME280;55625;47.072;22.192;2022-12-16T08:18:48;98841.88;;;6.71;100.00
68634;BME280;55625;47.072;22.192;2022-12-16T08:21:33;98837.81;;;6.72;100.00
68634;BME280;55625;47.072;22.192;2022-12-16T08:24:17;98833.34;;;6.74;100.00
68634;BME280;55625;47.072;22.192;2022-12-16T08:27:01;98834.47;;;6.90;100.00
68634;BME280;55625;47.072;22.192;2022-12-16T08:29:45;98826.00;;;7.02;100.00
68634;BME280;55625;47.072;22.192;2022-12-16T08:32:29;98816.41;;;7.12;100.00
68634;BME280;55625;47.072;22.192;2022-12-16T08:35:13;98810.53;;;7.20;100.00
68634;BME280;55625;47.072;22.192;2022-12-16T08:37:58;98812.19;;;7.30;100.00
68634;BME280;55625;47.072;22.192;2022-12-16T08:40:43;98804.47;;;7.56;100.00
68634;BME280;55625;47.072;22.192;2022-12-16T08:43:33;98801.44;;;7.85;100.00
68634;BME280;55625;47.072;22.192;2022-12-16T08:46:18;98807.59;;;8.05;100.00
68634;BME280;55625;47.072;22.192;2022-12-16T08:49:03;98791.34;;;8.18;100.00
68634;BME280;55625;47.072;22.192;2022-12-16T08:51:48;98793.13;;;8.25;100.00
68634;BME280;55625;47.072;22.192;2022-12-16T08:54:32;98795.25;;;8.33;100.00
68634;BME280;55625;47.072;22.192;2022-12-16T08:57:17;98808.16;;;8.34;100.00
68634;BME280;55625;47.072;22.192;2022-12-16T09:00:04;98795.25;;;8.33;100.00
68634;BME280;55625;47.072;22.192;2022-12-16T09:02:58;98793.22;;;8.34;100.00
68634;BME280;55625;47.072;22.192;2022-12-16T09:05:43;98786.66;;;8.37;100.00
68634;BME280;55625;47.072;22.192;2022-12-16T09:08:47;98788.41;;;8.44;100.00
68634;BME280;55625;47.072;22.192;2022-12-16T09:11:31;98790.78;;;8.45;100.00
68634;BME280;55625;47.072;22.192;2022-12-16T09:14:16;98791.56;;;8.46;100.00
68634;BME280;55625;47.072;22.192;2022-12-16T09:17:00;98793.72;;;8.63;100.00
68634;BME280;55625;47.072;22.192;2022-12-16T09:19:45;98793.59;;;8.76;100.00
68634;BME280;55625;47.072;22.192;2022-12-16T09:22:29;98791.50;;;8.89;100.00
68634;BME280;55625;47.072;22.192;2022-12-16T09:25:14;98804.09;;;8.97;100.00
68634;BME280;55625;47.072;22.192;2022-12-16T09:27:58;98809.28;;;8.99;100.00
68634;BME280;55625;47.072;22.192;2022-12-16T09:30:43;98797.78;;;8.93;100.00
68634;BME280;55625;47.072;22.192;2022-12-16T09:33:35;98788.97;;;8.91;100.00
68634;BME280;55625;47.072;22.192;2022-12-16T09:36:19;98792.13;;;8.93;100.00
68634;BME280;55625;47.072;22.192;2022-12-16T09:39:04;98806.59;;;8.95;100.00
68634;BME280;55625;47.072;22.192;2022-12-16T09:42:28;98797.50;;;9.00;100.00
68634;BME280;55625;47.072;22.192;2022-12-16T09:45:32;98806.66;;;9.14;100.00
68634;BME280;55625;47.072;22.192;2022-12-16T09:51:19;98807.09;;;9.52;100.00
68634;BME280;55625;47.072;22.192;2022-12-16T09:54:04;98788.53;;;9.60;100.00
68634;BME280;55625;47.072;22.192;2022-12-16T09:56:53;98769.03;;;10.17;100.00
68634;BME280;55625;47.072;22.192;2022-12-16T09:59:40;98755.44;;;10.49;100.00
68634;BME280;55625;47.072;22.192;2022-12-16T10:02:28;98746.72;;;10.62;100.00
68634;BME280;55625;47.072;22.192;2022-12-16T10:05:17;98739.66;;;10.90;100.00
68634;BME280;55625;47.072;22.192;2022-12-16T10:08:24;98745.47;;;10.96;100.00
68634;BME280;55625;47.072;22.192;2022-12-16T10:11:34;98753.34;;;11.01;100.00
68634;BME280;55625;47.072;22.192;2022-12-16T10:14:35;98743.09;;;11.03;100.00
68634;BME280;55625;47.072;22.192;2022-12-16T10:17:41;98744.81;;;11.01;100.00
68634;BME280;55625;47.072;22.192;2022-12-16T10:20:50;98736.63;;;11.03;100.00
68634;BME280;55625;47.072;22.192;2022-12-16T10:27:09;98734.34;;;11.16;100.00
68634;BME280;55625;47.072;22.192;2022-12-16T10:29:56;98737.78;;;11.20;100.00
68634;BME280;55625;47.072;22.192;2022-12-16T10:32:47;98743.38;;;11.38;100.00
68634;BME280;55625;47.072;22.192;2022-12-16T10:35:50;98732.84;;;11.54;100.00
68634;BME280;55625;47.072;22.192;2022-12-16T10:41:36;98729.84;;;11.72;100.00
68634;BME280;55625;47.072;22.192;2022-12-16T10:44:54;98742.22;;;11.69;100.00
68634;BME280;55625;47.072;22.192;2022-12-16T10:47:40;98736.56;;;11.84;100.00
68634;BME280;55625;47.072;22.192;2022-12-16T10:50:25;98731.81;;;12.04;100.00
68634;BME280;55625;47.072;22.192;2022-12-16T10:53:17;98736.13;;;12.15;100.00
68634;BME280;55625;47.072;22.192;2022-12-16T10:59:06;98732.63;;;12.49;100.00
68634;BME280;55625;47.072;22.192;2022-12-16T11:02:02;98734.66;;;12.78;100.00
68634;BME280;55625;47.072;22.192;2022-12-16T11:04:48;98739.72;;;13.18;99.89
68634;BME280;55625;47.072;22.192;2022-12-16T11:07:38;98730.44;;;13.58;99.80
68634;BME280;55625;47.072;22.192;2022-12-16T11:10:41;98734.69;;;13.89;95.46
68634;BME280;55625;47.072;22.192;2022-12-16T11:13:31;98732.88;;;14.12;90.57
68634;BME280;55625;47.072;22.192;2022-12-16T11:16:20;98744.22;;;14.06;92.92
68634;BME280;55625;47.072;22.192;2022-12-16T11:19:28;98743.84;;;14.19;91.12
68634;BME280;55625;47.072;22.192;2022-12-16T11:25:18;98733.97;;;14.40;90.15
68634;BME280;55625;47.072;22.192;2022-12-16T11:28:14;98738.69;;;14.43;89.13
68634;BME280;55625;47.072;22.192;2022-12-16T11:31:05;98734.41;;;14.59;87.21
68634;BME280;55625;47.072;22.192;2022-12-16T11:33:54;98731.22;;;14.51;88.63
68634;BME280;55625;47.072;22.192;2022-12-16T11:36:39;98733.16;;;14.66;86.77
68634;BME280;55625;47.072;22.192;2022-12-16T11:39:27;98717.66;;;14.72;86.46
68634;BME280;55625;47.072;22.192;2022-12-16T11:42:25;98719.81;;;14.83;85.95
68634;BME280;55625;47.072;22.192;2022-12-16T11:45:17;98710.81;;;14.96;84.83
68634;BME280;55625;47.072;22.192;2022-12-16T11:51:14;98715.00;;;14.69;85.59
68634;BME280;55625;47.072;22.192;2022-12-16T11:54:17;98714.72;;;14.67;84.95
68634;BME280;55625;47.072;22.192;2022-12-16T11:57:19;98721.75;;;14.66;86.45
68634;BME280;55625;47.072;22.192;2022-12-16T12:00:09;98713.63;;;14.58;88.14
68634;BME280;55625;47.072;22.192;2022-12-16T12:03:14;98718.38;;;14.67;88.64
68634;BME280;55625;47.072;22.192;2022-12-16T12:06:20;98722.75;;;14.63;85.96
68634;BME280;55625;47.072;22.192;2022-12-16T12:15:37;98723.31;;;14.15;86.80
68634;BME280;55625;47.072;22.192;2022-12-16T12:19:13;98715.69;;;14.06;87.75
68634;BME280;55625;47.072;22.192;2022-12-16T12:22:03;98714.25;;;14.16;87.95
68634;BME280;55625;47.072;22.192;2022-12-16T12:25:26;98713.75;;;14.18;87.46
68634;BME280;55625;47.072;22.192;2022-12-16T12:28:46;98725.72;;;14.22;86.38
68634;BME280;55625;47.072;22.192;2022-12-16T12:35:23;98720.16;;;14.39;87.49
68634;BME280;55625;47.072;22.192;2022-12-16T12:41:53;98724.94;;;14.73;84.58
68634;BME280;55625;47.072;22.192;2022-12-16T12:48:21;98724.50;;;14.54;83.37
68634;BME280;55625;47.072;22.192;2022-12-16T12:57:42;98725.63;;;14.11;86.76
68634;BME280;55625;47.072;22.192;2022-12-16T13:00:32;98729.75;;;14.10;85.53
68634;BME280;55625;47.072;22.192;2022-12-16T13:03:47;98721.56;;;13.97;87.47
68634;BME280;55625;47.072;22.192;2022-12-16T13:06:34;98731.13;;;13.94;86.94
68634;BME280;55625;47.072;22.192;2022-12-16T13:09:35;98747.09;;;13.86;87.01
68634;BME280;55625;47.072;22.192;2022-12-16T13:12:32;98747.03;;;13.80;86.84
68634;BME280;55625;47.072;22.192;2022-12-16T13:15:36;98753.81;;;13.83;85.87
68634;BME280;55625;47.072;22.192;2022-12-16T13:18:31;98747.38;;;13.88;85.48
68634;BME280;55625;47.072;22.192;2022-12-16T13:27:26;98763.94;;;13.84;85.61
68634;BME280;55625;47.072;22.192;2022-12-16T13:33:26;98763.88;;;13.78;86.06
68634;BME280;55625;47.072;22.192;2022-12-16T13:36:14;98764.56;;;13.73;86.92
68634;BME280;55625;47.072;22.192;2022-12-16T13:39:39;98771.91;;;13.59;88.71
68634;BME280;55625;47.072;22.192;2022-12-16T13:48:48;98785.69;;;13.81;86.04
68634;BME280;55625;47.072;22.192;2022-12-16T13:54:35;98795.34;;;13.69;87.27
68634;BME280;55625;47.072;22.192;2022-12-16T13:57:23;98792.44;;;13.63;86.05
68634;BME280;55625;47.072;22.192;2022-12-16T14:00:22;98798.41;;;13.65;85.89
68634;BME280;55625;47.072;22.192;2022-12-16T14:03:43;98807.19;;;13.62;86.32
68634;BME280;55625;47.072;22.192;2022-12-16T14:06:29;98818.38;;;13.65;86.19
68634;BME280;55625;47.072;22.192;2022-12-16T14:09:29;98813.88;;;13.59;86.88
68634;BME280;55625;47.072;22.192;2022-12-16T14:12:58;98814.66;;;13.59;86.17
68634;BME280;55625;47.072;22.192;2022-12-16T14:16:14;98827.06;;;13.56;86.59
68634;BME280;55625;47.072;22.192;2022-12-16T14:25:19;98838.91;;;13.49;87.06
68634;BME280;55625;47.072;22.192;2022-12-16T14:31:35;98833.84;;;13.24;88.49
68634;BME280;55625;47.072;22.192;2022-12-16T14:34:22;98841.31;;;13.21;88.45
68634;BME280;55625;47.072;22.192;2022-12-16T14:37:22;98847.56;;;13.11;89.77
68634;BME280;55625;47.072;22.192;2022-12-16T14:40:25;98860.13;;;13.04;90.39
68634;BME280;55625;47.072;22.192;2022-12-16T14:43:18;98864.28;;;12.88;91.86
68634;BME280;55625;47.072;22.192;2022-12-16T14:46:04;98868.78;;;12.80;91.66
68634;BME280;55625;47.072;22.192;2022-12-16T14:48:49;98870.53;;;12.78;91.95
68634;BME280;55625;47.072;22.192;2022-12-16T14:51:37;98871.22;;;12.72;91.96
68634;BME280;55625;47.072;22.192;2022-12-16T14:54:33;98871.13;;;12.67;91.74
68634;BME280;55625;47.072;22.192;2022-12-16T14:57:22;98875.75;;;13.09;89.00
68634;BME280;55625;47.072;22.192;2022-12-16T15:03:15;98887.63;;;13.51;86.52
68634;BME280;55625;47.072;22.192;2022-12-16T15:06:05;98894.25;;;13.28;88.25
68634;BME280;55625;47.072;22.192;2022-12-16T15:08:56;98892.44;;;13.01;90.17
68634;BME280;55625;47.072;22.192;2022-12-16T15:11:45;98899.59;;;12.82;91.54
68634;BME280;55625;47.072;22.192;2022-12-16T15:14:33;98895.75;;;12.55;94.08
68634;BME280;55625;47.072;22.192;2022-12-16T15:17:34;98902.06;;;12.35;95.95
68634;BME280;55625;47.072;22.192;2022-12-16T15:20:24;98914.84;;;12.16;96.83
68634;BME280;55625;47.072;22.192;2022-12-16T15:23:30;98913.88;;;11.95;97.78
68634;BME280;55625;47.072;22.192;2022-12-16T15:26:21;98921.84;;;11.82;99.00
68634;BME280;55625;47.072;22.192;2022-12-16T15:29:40;98922.06;;;11.60;100.00
68634;BME280;55625;47.072;22.192;2022-12-16T15:35:35;98938.41;;;11.41;100.00
68634;BME280;55625;47.072;22.192;2022-12-16T15:41:33;98946.69;;;11.21;100.00
68634;BME280;55625;47.072;22.192;2022-12-16T15:44:21;98940.53;;;11.13;100.00
68634;BME280;55625;47.072;22.192;2022-12-16T15:47:33;98944.81;;;11.09;100.00
68634;BME280;55625;47.072;22.192;2022-12-16T15:50:25;98941.38;;;11.05;100.00
68634;BME280;55625;47.072;22.192;2022-12-16T15:56:24;98956.50;;;10.93;100.00
68634;BME280;55625;47.072;22.192;2022-12-16T15:59:26;98951.81;;;10.80;100.00
68634;BME280;55625;47.072;22.192;2022-12-16T16:02:26;98956.22;;;10.72;100.00
68634;BME280;55625;47.072;22.192;2022-12-16T16:05:23;98953.38;;;10.72;100.00
68634;BME280;55625;47.072;22.192;2022-12-16T16:08:10;98955.88;;;10.70;100.00
68634;BME280;55625;47.072;22.192;2022-12-16T16:10:55;98957.31;;;10.66;100.00
68634;BME280;55625;47.072;22.192;2022-12-16T16:13:40;98954.00;;;10.58;100.00
68634;BME280;55625;47.072;22.192;2022-12-16T16:16:24;98951.81;;;10.44;100.00
68634;BME280;55625;47.072;22.192;2022-12-16T16:19:12;98951.63;;;10.29;100.00
68634;BME280;55625;47.072;22.192;2022-12-16T16:21:59;98956.16;;;10.17;100.00
68634;BME280;55625;47.072;22.192;2022-12-16T16:24:43;98960.19;;;10.07;100.00